createdAt,value
2018-02-25T00:00:09.787Z,2.00
2018-02-25T00:01:10.056Z,2.20
2018-02-25T00:02:10.313Z,2.20
2018-02-25T00:03:10.576Z,2.30
2018-02-25T00:04:10.838Z,2.30
2018-02-25T00:05:11.114Z,2.10
2018-02-25T00:06:11.363Z,2.40
2018-02-25T00:07:11.638Z,2.10
2018-02-25T00:08:11.896Z,2.40
2018-02-25T00:09:12.165Z,2.30
2018-02-25T00:10:12.412Z,2.10
2018-02-25T00:11:12.681Z,2.30
2018-02-25T00:12:12.937Z,2.40
2018-02-25T00:13:13.210Z,2.10
2018-02-25T00:14:13.468Z,2.10
2018-02-25T00:15:13.730Z,2.20
2018-02-25T00:16:14.003Z,2.20
2018-02-25T00:17:14.272Z,2.20
2018-02-25T00:18:14.519Z,2.30
2018-02-25T00:19:14.782Z,2.20
2018-02-25T00:20:15.042Z,2.10
2018-02-25T00:21:15.319Z,2.20
2018-02-25T00:22:15.566Z,2.10
2018-02-25T00:23:15.833Z,2.30
2018-02-25T00:24:16.096Z,2.20
2018-02-25T00:25:16.373Z,2.20
2018-02-25T00:26:16.620Z,2.30
2018-02-25T00:27:16.882Z,2.10
2018-02-25T00:28:17.160Z,2.30
2018-02-25T00:29:17.400Z,2.30
2018-02-25T00:30:17.712Z,2.30
2018-02-25T00:31:17.924Z,2.30
2018-02-25T00:32:18.188Z,2.30
2018-02-25T00:33:18.454Z,2.20
2018-02-25T00:34:18.718Z,2.50
2018-02-25T00:35:18.985Z,2.10
2018-02-25T00:36:19.242Z,2.10
2018-02-25T00:37:19.506Z,2.20
2018-02-25T00:38:19.768Z,2.10
2018-02-25T00:39:20.031Z,2.10
2018-02-25T00:40:20.296Z,2.30
2018-02-25T00:41:20.560Z,2.30
2018-02-25T00:42:20.826Z,2.20
2018-02-25T00:43:21.093Z,2.40
2018-02-25T00:44:21.353Z,2.20
2018-02-25T00:45:21.614Z,2.30
2018-02-25T00:46:21.887Z,2.10
2018-02-25T00:47:22.145Z,2.40
2018-02-25T00:48:22.412Z,2.30
2018-02-25T00:49:22.672Z,2.40
2018-02-25T00:50:22.941Z,2.30
2018-02-25T00:51:23.198Z,2.30
2018-02-25T00:52:23.464Z,2.00
2018-02-25T00:53:23.727Z,2.20
2018-02-25T00:54:23.979Z,2.00
2018-02-25T00:55:24.238Z,2.30
2018-02-25T00:56:24.504Z,2.30
2018-02-25T00:57:24.771Z,2.40
2018-02-25T00:58:25.033Z,2.20
2018-02-25T00:59:25.297Z,2.10
2018-02-25T01:00:25.571Z,2.30
2018-02-25T01:01:25.820Z,2.50
2018-02-25T01:02:26.092Z,2.20
2018-02-25T01:03:26.348Z,2.10
2018-02-25T01:04:26.619Z,2.40
2018-02-25T01:05:26.876Z,2.10
2018-02-25T01:06:27.145Z,2.30
2018-02-25T01:07:27.435Z,2.30
2018-02-25T01:08:27.683Z,2.30
2018-02-25T01:09:27.951Z,2.20
2018-02-25T01:10:28.213Z,2.20
2018-02-25T01:11:28.479Z,2.20
2018-02-25T01:12:28.745Z,2.20
2018-02-25T01:13:29.007Z,2.30
2018-02-25T01:14:29.272Z,2.20
2018-02-25T01:15:29.534Z,2.20
2018-02-25T01:16:29.798Z,2.20
2018-02-25T01:17:30.061Z,2.30
2018-02-25T01:18:30.344Z,2.20
2018-02-25T01:19:30.599Z,2.60
2018-02-25T01:20:30.863Z,2.60
2018-02-25T01:21:31.133Z,2.20
2018-02-25T01:22:31.381Z,2.20
2018-02-25T01:23:31.646Z,2.40
2018-02-25T01:24:31.910Z,2.30
2018-02-25T01:25:32.175Z,2.30
2018-02-25T01:26:32.440Z,2.30
2018-02-25T01:27:32.702Z,2.30
2018-02-25T01:28:32.967Z,2.10
2018-02-25T01:29:33.246Z,2.20
2018-02-25T01:30:33.524Z,2.10
2018-02-25T01:31:33.786Z,2.30
2018-02-25T01:32:34.046Z,2.10
2018-02-25T01:33:34.310Z,2.30
2018-02-25T01:34:34.575Z,3.00
2018-02-25T01:35:34.851Z,2.40
2018-02-25T01:36:35.115Z,2.20
2018-02-25T01:37:35.382Z,2.20
2018-02-25T01:38:35.641Z,2.50
2018-02-25T01:39:35.911Z,2.20
2018-02-25T01:40:36.172Z,2.20
2018-02-25T01:41:36.439Z,2.60
2018-02-25T01:42:36.699Z,2.20
2018-02-25T01:43:36.959Z,2.20
2018-02-25T01:44:37.223Z,2.40
2018-02-25T01:45:37.490Z,2.40
2018-02-25T01:46:37.749Z,2.20
2018-02-25T01:47:38.021Z,2.30
2018-02-25T01:48:38.274Z,2.30
2018-02-25T01:49:38.538Z,2.20
2018-02-25T01:50:38.801Z,2.20
2018-02-25T01:51:39.072Z,2.60
2018-02-25T01:52:39.339Z,2.40
2018-02-25T01:53:39.592Z,2.20
2018-02-25T01:54:39.863Z,2.30
2018-02-25T01:55:40.120Z,2.50
2018-02-25T01:56:40.389Z,2.40
2018-02-25T01:57:40.651Z,2.30
2018-02-25T01:58:40.914Z,2.00
2018-02-25T01:59:41.174Z,2.60
2018-02-25T02:00:41.443Z,2.20
2018-02-25T02:01:41.708Z,2.30
2018-02-25T02:02:41.981Z,2.30
2018-02-25T02:03:42.245Z,2.70
2018-02-25T02:04:42.510Z,2.30
2018-02-25T02:05:42.774Z,2.60
2018-02-25T02:06:43.174Z,2.40
2018-02-25T02:07:43.297Z,2.50
2018-02-25T02:08:43.560Z,2.30
2018-02-25T02:09:43.830Z,2.40
2018-02-25T02:10:44.092Z,2.30
2018-02-25T02:11:44.361Z,2.40
2018-02-25T02:12:44.624Z,2.20
2018-02-25T02:13:44.888Z,2.50
2018-02-25T02:14:45.153Z,2.50
2018-02-25T02:15:45.417Z,2.90
2018-02-25T02:16:45.684Z,2.40
2018-02-25T02:17:45.945Z,3.10
2018-02-25T02:18:46.216Z,2.80
2018-02-25T02:19:46.475Z,2.30
2018-02-25T02:20:46.737Z,2.60
2018-02-25T02:21:47.010Z,2.30
2018-02-25T02:22:47.269Z,2.50
2018-02-25T02:23:47.527Z,2.60
2018-02-25T02:24:47.789Z,2.50
2018-02-25T02:25:48.055Z,2.80
2018-02-25T02:26:48.316Z,2.50
2018-02-25T02:27:48.579Z,2.30
2018-02-25T02:28:48.846Z,2.40
2018-02-25T02:29:49.104Z,2.80
2018-02-25T02:30:49.371Z,2.60
2018-02-25T02:31:49.627Z,2.50
2018-02-25T02:32:49.894Z,2.40
2018-02-25T02:33:50.169Z,2.30
2018-02-25T02:34:50.420Z,2.30
2018-02-25T02:35:50.782Z,2.40
2018-02-25T02:36:51.015Z,2.50
2018-02-25T02:37:51.286Z,2.40
2018-02-25T02:38:51.556Z,2.20
2018-02-25T02:39:51.814Z,2.40
2018-02-25T02:40:52.082Z,2.70
2018-02-25T02:41:52.346Z,2.50
2018-02-25T02:42:52.619Z,2.70
2018-02-25T02:43:52.880Z,2.70
2018-02-25T02:44:53.148Z,2.70
2018-02-25T02:45:53.412Z,2.60
2018-02-25T02:46:53.671Z,2.40
2018-02-25T02:47:53.936Z,2.60
2018-02-25T02:48:54.211Z,2.60
2018-02-25T02:49:54.462Z,2.70
2018-02-25T02:50:54.727Z,2.40
2018-02-25T02:51:54.994Z,2.40
2018-02-25T02:52:55.254Z,2.50
2018-02-25T02:53:55.515Z,2.90
2018-02-25T02:54:55.791Z,2.40
2018-02-25T02:55:56.043Z,2.40
2018-02-25T02:56:56.304Z,2.40
2018-02-25T02:57:56.568Z,2.30
2018-02-25T02:58:56.833Z,2.40
2018-02-25T02:59:57.094Z,2.60
2018-02-25T03:00:57.358Z,2.30
2018-02-25T03:01:57.685Z,2.60
2018-02-25T03:02:57.884Z,2.50
2018-02-25T03:03:58.173Z,2.70
2018-02-25T03:04:58.398Z,2.40
2018-02-25T03:05:58.662Z,2.80
2018-02-25T03:06:58.939Z,2.90
2018-02-25T03:07:59.190Z,2.40
2018-02-25T03:08:59.488Z,2.60
2018-02-25T03:09:59.714Z,2.60
2018-02-25T03:10:59.992Z,2.70
2018-02-25T03:12:00.245Z,2.40
2018-02-25T03:13:00.511Z,2.40
2018-02-25T03:14:00.806Z,2.50
2018-02-25T03:15:01.072Z,2.60
2018-02-25T03:16:01.273Z,2.50
2018-02-25T03:17:01.531Z,2.60
2018-02-25T03:18:01.803Z,2.60
2018-02-25T03:19:02.071Z,2.20
2018-02-25T03:20:02.339Z,2.40
2018-02-25T03:21:02.605Z,2.40
2018-02-25T03:22:02.865Z,2.80
2018-02-25T03:23:03.131Z,2.90
2018-02-25T03:24:03.395Z,2.50
2018-02-25T03:25:03.664Z,2.70
2018-02-25T03:26:03.936Z,2.50
2018-02-25T03:27:04.188Z,2.70
2018-02-25T03:28:04.461Z,2.50
2018-02-25T03:29:04.719Z,2.60
2018-02-25T03:30:04.990Z,2.40
2018-02-25T03:31:05.246Z,3.20
2018-02-25T03:32:05.513Z,2.50
2018-02-25T03:33:05.771Z,2.60
2018-02-25T03:34:06.029Z,2.90
2018-02-25T03:35:06.290Z,2.50
2018-02-25T03:36:06.553Z,2.80
2018-02-25T03:37:06.818Z,2.60
2018-02-25T03:38:07.091Z,2.80
2018-02-25T03:39:07.369Z,2.50
2018-02-25T03:40:07.623Z,2.60
2018-02-25T03:41:07.895Z,2.50
2018-02-25T03:42:08.160Z,2.70
2018-02-25T03:43:08.427Z,2.80
2018-02-25T03:44:08.690Z,2.80
2018-02-25T03:45:08.952Z,2.50
2018-02-25T03:46:09.227Z,2.80
2018-02-25T03:47:09.472Z,2.70
2018-02-25T03:48:09.736Z,2.50
2018-02-25T03:49:09.994Z,2.70
2018-02-25T03:50:10.266Z,2.50
2018-02-25T03:51:10.532Z,2.90
2018-02-25T03:52:10.793Z,2.70
2018-02-25T03:53:11.059Z,2.70
2018-02-25T03:54:11.321Z,2.70
2018-02-25T03:55:11.588Z,3.20
2018-02-25T03:56:11.846Z,2.80
2018-02-25T03:57:12.111Z,2.70
2018-02-25T03:58:12.377Z,2.80
2018-02-25T03:59:12.638Z,2.40
2018-02-25T04:00:12.905Z,2.90
2018-02-25T04:01:13.178Z,2.30
2018-02-25T04:02:13.431Z,2.90
2018-02-25T04:03:13.697Z,2.60
2018-02-25T04:04:13.970Z,2.40
2018-02-25T04:05:14.225Z,2.50
2018-02-25T04:06:14.489Z,2.60
2018-02-25T04:07:14.763Z,2.80
2018-02-25T04:08:15.024Z,2.90
2018-02-25T04:09:15.278Z,2.40
2018-02-25T04:10:15.546Z,2.60
2018-02-25T04:11:15.803Z,2.80
2018-02-25T04:12:16.069Z,3.30
2018-02-25T04:13:16.329Z,2.80
2018-02-25T04:14:16.594Z,2.90
2018-02-25T04:15:16.865Z,2.90
2018-02-25T04:16:17.124Z,2.80
2018-02-25T04:17:17.383Z,2.90
2018-02-25T04:18:17.647Z,2.90
2018-02-25T04:19:17.905Z,2.70
2018-02-25T04:20:18.170Z,2.90
2018-02-25T04:21:18.432Z,3.20
2018-02-25T04:22:18.698Z,2.90
2018-02-25T04:23:18.955Z,2.80
2018-02-25T04:24:19.221Z,3.00
2018-02-25T04:25:19.495Z,3.30
2018-02-25T04:26:19.750Z,2.60
2018-02-25T04:27:20.011Z,2.80
2018-02-25T04:28:20.276Z,2.60
2018-02-25T04:29:20.535Z,2.70
2018-02-25T04:30:20.802Z,3.00
2018-02-25T04:31:21.062Z,2.70
2018-02-25T04:32:21.326Z,2.80
2018-02-25T04:33:21.588Z,3.00
2018-02-25T04:34:21.851Z,3.20
2018-02-25T04:35:22.113Z,3.20
2018-02-25T04:36:22.376Z,2.80
2018-02-25T04:37:22.641Z,2.70
2018-02-25T04:38:22.901Z,2.90
2018-02-25T04:39:23.173Z,2.70
2018-02-25T04:40:23.431Z,3.00
2018-02-25T04:41:23.691Z,3.10
2018-02-25T04:42:23.952Z,3.10
2018-02-25T04:43:24.217Z,3.10
2018-02-25T04:44:24.492Z,3.00
2018-02-25T04:45:24.740Z,3.10
2018-02-25T04:46:25.007Z,3.40
2018-02-25T04:47:25.277Z,2.90
2018-02-25T04:48:25.578Z,2.90
2018-02-25T04:49:25.838Z,2.60
2018-02-25T04:50:26.105Z,2.90
2018-02-25T04:51:26.375Z,3.40
2018-02-25T04:52:26.630Z,2.80
2018-02-25T04:53:26.904Z,3.00
2018-02-25T04:54:27.158Z,3.00
2018-02-25T04:55:27.422Z,3.00
2018-02-25T04:56:27.686Z,3.10
2018-02-25T04:57:27.950Z,2.90
2018-02-25T04:58:28.211Z,2.60
2018-02-25T04:59:28.486Z,3.20
2018-02-25T05:00:28.733Z,3.00
2018-02-25T05:01:29.007Z,2.90
2018-02-25T05:02:29.260Z,2.90
2018-02-25T05:03:29.531Z,3.10
2018-02-25T05:04:29.784Z,2.90
2018-02-25T05:05:30.053Z,2.70
2018-02-25T05:06:30.315Z,3.30
2018-02-25T05:07:30.583Z,3.00
2018-02-25T05:08:30.839Z,3.00
2018-02-25T05:09:31.102Z,3.60
2018-02-25T05:10:31.366Z,3.30
2018-02-25T05:11:31.635Z,2.70
2018-02-25T05:12:31.889Z,3.00
2018-02-25T05:13:32.153Z,2.90
2018-02-25T05:14:32.415Z,3.00
2018-02-25T05:15:32.680Z,3.10
2018-02-25T05:16:32.940Z,2.90
2018-02-25T05:17:33.203Z,3.70
2018-02-25T05:18:33.468Z,3.30
2018-02-25T05:19:33.758Z,3.30
2018-02-25T05:20:34.022Z,3.40
2018-02-25T05:21:34.285Z,3.10
2018-02-25T05:22:34.551Z,2.80
2018-02-25T05:23:34.817Z,3.20
2018-02-25T05:24:35.082Z,2.90
2018-02-25T05:25:35.391Z,2.90
2018-02-25T05:28:07.287Z,3.00
2018-02-25T05:29:07.551Z,3.40
2018-02-25T05:30:07.866Z,3.30
2018-02-25T05:31:08.136Z,2.70
2018-02-25T05:32:08.401Z,3.10
2018-02-25T05:33:08.669Z,3.00
2018-02-25T05:34:08.930Z,2.90
2018-02-25T05:35:09.187Z,2.60
2018-02-25T05:36:09.454Z,3.00
2018-02-25T05:37:09.716Z,3.00
2018-02-25T05:38:09.987Z,3.10
2018-02-25T05:39:10.248Z,2.70
2018-02-25T05:40:10.519Z,3.20
2018-02-25T05:41:10.781Z,2.90
2018-02-25T05:42:11.061Z,2.90
2018-02-25T05:43:11.315Z,3.10
2018-02-25T05:44:11.586Z,3.40
2018-02-25T05:45:11.836Z,3.10
2018-02-25T05:46:12.105Z,3.00
2018-02-25T05:47:12.362Z,3.10
2018-02-25T05:48:12.628Z,3.20
2018-02-25T05:49:12.889Z,3.10
2018-02-25T05:50:13.157Z,3.10
2018-02-25T05:51:13.472Z,3.00
2018-02-25T05:52:13.686Z,3.00
2018-02-25T05:53:13.941Z,3.00
2018-02-25T05:54:14.208Z,2.90
2018-02-25T05:55:14.466Z,3.00
2018-02-25T05:56:14.731Z,2.80
2018-02-25T05:57:14.995Z,2.70
2018-02-25T05:58:15.258Z,3.00
2018-02-25T05:59:15.530Z,2.90
2018-02-25T06:00:15.782Z,3.40
2018-02-25T06:01:16.044Z,3.20
2018-02-25T06:02:16.312Z,3.10
2018-02-25T06:03:16.581Z,3.30
2018-02-25T06:04:16.837Z,2.80
2018-02-25T06:05:17.106Z,2.80
2018-02-25T06:06:17.362Z,2.90
2018-02-25T06:07:17.644Z,3.10
2018-02-25T06:08:17.912Z,3.20
2018-02-25T06:09:18.178Z,3.00
2018-02-25T06:10:18.442Z,3.50
2018-02-25T06:11:18.708Z,3.30
2018-02-25T06:12:18.972Z,3.00
2018-02-25T06:13:19.237Z,2.90
2018-02-25T06:14:19.501Z,3.40
2018-02-25T06:15:19.766Z,3.40
2018-02-25T06:16:20.030Z,3.10
2018-02-25T06:17:20.293Z,3.20
2018-02-25T06:18:20.556Z,3.30
2018-02-25T06:19:20.838Z,3.00
2018-02-25T06:20:21.114Z,3.00
2018-02-25T06:21:21.351Z,2.90
2018-02-25T06:22:21.616Z,3.30
2018-02-25T06:23:21.881Z,2.90
2018-02-25T06:24:22.141Z,3.40
2018-02-25T06:25:22.406Z,3.40
2018-02-25T06:26:22.665Z,3.10
2018-02-25T06:27:22.930Z,3.10
2018-02-25T06:28:23.191Z,3.10
2018-02-25T06:29:23.458Z,3.20
2018-02-25T06:30:23.728Z,3.30
2018-02-25T06:31:23.983Z,3.00
2018-02-25T06:32:24.254Z,3.30
2018-02-25T06:33:24.510Z,3.50
2018-02-25T06:34:24.789Z,3.50
2018-02-25T06:35:25.047Z,3.30
2018-02-25T06:36:25.310Z,3.00
2018-02-25T06:37:25.584Z,3.30
2018-02-25T06:38:25.847Z,2.90
2018-02-25T06:39:26.106Z,3.40
2018-02-25T06:40:26.378Z,3.30
2018-02-25T06:41:26.647Z,3.20
2018-02-25T06:42:26.908Z,3.20
2018-02-25T06:43:27.173Z,3.10
2018-02-25T06:44:27.436Z,3.10
2018-02-25T06:45:27.697Z,2.80
2018-02-25T06:46:27.963Z,3.20
2018-02-25T06:47:28.227Z,3.50
2018-02-25T06:48:28.492Z,3.50
2018-02-25T06:49:28.755Z,3.10
2018-02-25T06:50:29.023Z,3.10
2018-02-25T06:51:29.282Z,3.00
2018-02-25T06:52:29.547Z,3.10
2018-02-25T06:53:29.810Z,3.20
2018-02-25T06:54:30.091Z,3.10
2018-02-25T06:55:30.350Z,3.20
2018-02-25T06:56:30.611Z,2.90
2018-02-25T06:57:30.907Z,2.80
2018-02-25T06:58:31.152Z,3.00
2018-02-25T06:59:31.419Z,3.20
2018-02-25T07:00:31.682Z,3.10
2018-02-25T07:01:31.948Z,3.30
2018-02-25T07:02:32.213Z,3.20
2018-02-25T07:03:32.478Z,3.10
2018-02-25T07:04:32.743Z,3.10
2018-02-25T07:05:33.007Z,3.00
2018-02-25T07:06:33.272Z,3.30
2018-02-25T07:07:33.536Z,3.30
2018-02-25T07:08:33.799Z,3.00
2018-02-25T07:09:34.064Z,3.00
2018-02-25T07:10:34.330Z,3.10
2018-02-25T07:11:34.596Z,2.90
2018-02-25T07:12:34.856Z,3.00
2018-02-25T07:13:35.128Z,3.30
2018-02-25T07:14:35.385Z,3.40
2018-02-25T07:15:35.644Z,3.10
2018-02-25T07:16:35.910Z,3.10
2018-02-25T07:17:36.177Z,3.00
2018-02-25T07:18:36.437Z,3.20
2018-02-25T07:19:36.700Z,3.10
2018-02-25T07:20:36.963Z,2.90
2018-02-25T07:21:37.229Z,3.30
2018-02-25T07:22:37.501Z,3.10
2018-02-25T07:23:37.762Z,3.20
2018-02-25T07:24:38.029Z,2.90
2018-02-25T07:25:38.302Z,3.20
2018-02-25T07:26:38.570Z,3.20
2018-02-25T07:27:38.835Z,3.70
2018-02-25T07:28:39.155Z,3.00
2018-02-25T07:29:39.362Z,3.30
2018-02-25T07:30:39.629Z,2.90
2018-02-25T07:31:39.894Z,2.90
2018-02-25T07:32:40.158Z,3.10
2018-02-25T07:33:40.424Z,3.50
2018-02-25T07:34:40.686Z,3.20
2018-02-25T07:35:40.952Z,3.20
2018-02-25T07:36:41.217Z,3.00
2018-02-25T07:37:41.503Z,3.10
2018-02-25T07:38:41.761Z,3.30
2018-02-25T07:39:42.027Z,3.40
2018-02-25T07:40:42.299Z,3.10
2018-02-25T07:41:42.563Z,3.20
2018-02-25T07:42:42.828Z,3.40
2018-02-25T07:43:43.093Z,3.20
2018-02-25T07:44:43.357Z,3.00
2018-02-25T07:45:43.624Z,3.30
2018-02-25T07:46:43.884Z,3.40
2018-02-25T07:47:44.149Z,3.30
2018-02-25T07:48:44.412Z,3.50
2018-02-25T07:49:44.675Z,3.50
2018-02-25T07:50:44.942Z,3.10
2018-02-25T07:51:45.206Z,2.70
2018-02-25T07:52:45.472Z,3.20
2018-02-25T07:53:45.727Z,3.10
2018-02-25T07:54:45.992Z,2.70
2018-02-25T07:55:46.256Z,3.00
2018-02-25T07:56:46.520Z,3.10
2018-02-25T07:57:46.830Z,3.10
2018-02-25T07:58:47.051Z,3.50
2018-02-25T07:59:47.316Z,3.00
2018-02-25T08:00:47.586Z,3.10
2018-02-25T08:01:47.841Z,3.20
2018-02-25T08:02:48.118Z,3.00
2018-02-25T08:03:48.378Z,3.20
2018-02-25T08:04:48.641Z,3.20
2018-02-25T08:05:48.898Z,2.80
2018-02-25T08:06:49.166Z,3.70
2018-02-25T08:07:49.425Z,3.20
2018-02-25T08:08:49.680Z,3.20
2018-02-25T08:09:49.953Z,2.80
2018-02-25T08:10:50.218Z,3.20
2018-02-25T08:11:50.480Z,3.00
2018-02-25T08:12:50.744Z,2.80
2018-02-25T08:13:51.010Z,3.00
2018-02-25T08:14:51.292Z,3.10
2018-02-25T08:15:51.535Z,3.20
2018-02-25T08:16:51.798Z,3.50
2018-02-25T08:17:52.072Z,3.30
2018-02-25T08:18:52.338Z,3.30
2018-02-25T08:19:52.603Z,3.00
2018-02-25T08:20:52.869Z,3.00
2018-02-25T08:21:53.133Z,3.30
2018-02-25T08:22:53.396Z,3.00
2018-02-25T08:23:53.660Z,2.80
2018-02-25T08:24:53.924Z,3.00
2018-02-25T08:25:54.191Z,3.20
2018-02-25T08:26:54.456Z,3.20
2018-02-25T08:27:54.724Z,3.30
2018-02-25T08:28:55.006Z,3.10
2018-02-25T08:29:55.249Z,3.30
2018-02-25T08:30:55.513Z,3.30
2018-02-25T08:31:55.821Z,2.70
2018-02-25T08:32:56.051Z,2.70
2018-02-25T08:33:56.313Z,3.00
2018-02-25T08:34:56.579Z,3.00
2018-02-25T08:35:56.840Z,3.00
2018-02-25T08:36:57.112Z,3.20
2018-02-25T08:37:57.358Z,3.00
2018-02-25T08:38:57.646Z,3.00
2018-02-25T08:39:57.872Z,3.00
2018-02-25T08:40:58.142Z,2.90
2018-02-25T08:41:58.407Z,3.00
2018-02-25T08:42:58.663Z,3.00
2018-02-25T08:43:58.931Z,3.20
2018-02-25T08:44:59.198Z,3.20
2018-02-25T08:45:59.454Z,3.00
2018-02-25T08:46:59.811Z,3.20
2018-02-25T08:47:59.974Z,2.70
2018-02-25T08:49:00.239Z,3.10
2018-02-25T08:50:00.503Z,3.00
2018-02-25T08:51:00.774Z,2.90
2018-02-25T08:52:01.045Z,2.90
2018-02-25T08:53:01.322Z,2.90
2018-02-25T08:54:01.617Z,3.10
2018-02-25T08:55:01.857Z,3.10
2018-02-25T08:56:02.122Z,3.20
2018-02-25T08:57:02.389Z,3.10
2018-02-25T08:58:02.650Z,2.80
2018-02-25T08:59:02.915Z,2.60
2018-02-25T09:00:03.678Z,3.00
2018-02-25T09:01:03.474Z,2.90
2018-02-25T09:02:03.742Z,2.90
2018-02-25T09:03:04.006Z,3.00
2018-02-25T09:04:04.272Z,3.00
2018-02-25T09:05:04.537Z,3.00
2018-02-25T09:06:04.801Z,2.90
2018-02-25T09:07:05.075Z,3.10
2018-02-25T09:08:05.335Z,3.00
2018-02-25T09:09:05.601Z,2.90
2018-02-25T09:10:05.868Z,3.20
2018-02-25T09:11:06.135Z,2.90
2018-02-25T09:12:06.393Z,3.00
2018-02-25T09:13:06.659Z,3.00
2018-02-25T09:14:06.952Z,2.90
2018-02-25T09:15:07.189Z,2.50
2018-02-25T09:16:07.447Z,3.00
2018-02-25T09:17:07.737Z,2.80
2018-02-25T09:18:08.007Z,3.20
2018-02-25T09:19:08.271Z,3.20
2018-02-25T09:20:08.524Z,2.80
2018-02-25T09:21:08.800Z,2.90
2018-02-25T09:22:09.065Z,2.60
2018-02-25T09:23:09.330Z,3.00
2018-02-25T09:24:09.592Z,3.30
2018-02-25T09:25:09.857Z,2.70
2018-02-25T09:26:10.124Z,3.10
2018-02-25T09:27:10.384Z,3.00
2018-02-25T09:28:10.649Z,2.90
2018-02-25T09:29:10.914Z,2.60
2018-02-25T09:30:11.196Z,2.90
2018-02-25T09:31:11.439Z,2.70
2018-02-25T09:32:11.700Z,2.90
2018-02-25T09:33:11.959Z,3.00
2018-02-25T09:34:12.235Z,2.50
2018-02-25T09:35:12.486Z,2.80
2018-02-25T09:36:12.758Z,3.10
2018-02-25T09:37:13.014Z,3.00
2018-02-25T09:38:13.283Z,2.80
2018-02-25T09:39:13.535Z,3.10
2018-02-25T09:40:13.812Z,3.10
2018-02-25T09:41:14.066Z,2.70
2018-02-25T09:42:14.335Z,3.00
2018-02-25T09:43:14.591Z,2.80
2018-02-25T09:44:14.856Z,2.80
2018-02-25T09:45:15.131Z,2.50
2018-02-25T09:46:15.382Z,2.80
2018-02-25T09:47:15.647Z,2.90
2018-02-25T09:48:36.941Z,2.90
2018-02-25T09:49:16.314Z,2.70
2018-02-25T09:50:16.579Z,2.70
2018-02-25T09:51:16.845Z,2.80
2018-02-25T09:52:17.107Z,2.90
2018-02-25T09:53:17.374Z,2.80
2018-02-25T09:54:17.670Z,3.00
2018-02-25T09:55:17.888Z,2.70
2018-02-25T09:56:18.151Z,2.80
2018-02-25T09:57:18.417Z,2.90
2018-02-25T09:58:18.682Z,3.00
2018-02-25T09:59:18.947Z,2.90
2018-02-25T10:00:19.211Z,2.70
2018-02-25T10:01:19.473Z,2.70
2018-02-25T10:02:19.736Z,3.30
2018-02-25T10:03:20.005Z,2.60
2018-02-25T10:04:20.244Z,2.90
2018-02-25T10:05:20.509Z,3.10
2018-02-25T10:06:20.774Z,2.50
2018-02-25T10:07:21.038Z,2.80
2018-02-25T10:08:21.303Z,2.70
2018-02-25T10:09:21.568Z,2.90
2018-02-25T10:10:21.835Z,3.00
2018-02-25T10:11:22.106Z,3.00
2018-02-25T10:12:22.357Z,2.80
2018-02-25T10:13:22.622Z,2.80
2018-02-25T10:14:22.920Z,2.90
2018-02-25T10:15:23.148Z,2.90
2018-02-25T10:16:23.417Z,2.70
2018-02-25T10:17:23.677Z,3.20
2018-02-25T10:18:23.942Z,3.10
2018-02-25T10:19:24.208Z,2.90
2018-02-25T10:20:24.474Z,2.80
2018-02-25T10:21:24.740Z,2.50
2018-02-25T10:22:25.001Z,3.20
2018-02-25T10:23:25.267Z,2.70
2018-02-25T10:24:25.544Z,3.00
2018-02-25T10:25:25.798Z,2.60
2018-02-25T10:26:26.047Z,2.80
2018-02-25T10:27:26.310Z,2.90
2018-02-25T10:28:26.577Z,3.00
2018-02-25T10:29:26.843Z,2.90
2018-02-25T10:30:27.111Z,3.10
2018-02-25T10:31:27.370Z,2.70
2018-02-25T10:32:27.636Z,2.60
2018-02-25T10:33:27.901Z,2.90
2018-02-25T10:34:28.167Z,2.90
2018-02-25T10:35:28.440Z,3.10
2018-02-25T10:36:28.707Z,2.60
2018-02-25T10:37:28.972Z,2.50
2018-02-25T10:38:29.238Z,2.50
2018-02-25T10:39:29.508Z,3.20
2018-02-25T10:40:29.790Z,3.10
2018-02-25T10:41:30.024Z,2.60
2018-02-25T10:42:30.290Z,2.80
2018-02-25T10:43:30.558Z,2.90
2018-02-25T10:44:30.820Z,2.50
2018-02-25T10:45:31.084Z,2.70
2018-02-25T10:46:31.351Z,2.70
2018-02-25T10:47:31.629Z,2.70
2018-02-25T10:48:31.885Z,3.00
2018-02-25T10:49:32.147Z,2.70
2018-02-25T10:50:32.410Z,2.50
2018-02-25T10:51:32.682Z,2.70
2018-02-25T10:52:32.941Z,2.70
2018-02-25T10:53:33.208Z,2.70
2018-02-25T10:54:33.465Z,2.70
2018-02-25T10:55:33.738Z,3.10
2018-02-25T10:56:33.990Z,2.90
2018-02-25T10:57:34.296Z,2.80
2018-02-25T10:58:34.496Z,2.80
2018-02-25T10:59:34.759Z,2.30
2018-02-25T11:00:35.024Z,2.60
2018-02-25T11:01:35.290Z,2.70
2018-02-25T11:02:35.555Z,2.80
2018-02-25T11:03:35.822Z,2.70
2018-02-25T11:04:36.087Z,2.50
2018-02-25T11:05:36.351Z,2.80
2018-02-25T11:06:36.622Z,2.70
2018-02-25T11:07:36.874Z,3.00
2018-02-25T11:08:37.139Z,2.60
2018-02-25T11:09:37.404Z,2.50
2018-02-25T11:10:37.667Z,2.30
2018-02-25T11:11:37.983Z,2.70
2018-02-25T11:12:38.205Z,2.80
2018-02-25T11:13:38.464Z,2.90
2018-02-25T11:14:38.722Z,2.50
2018-02-25T11:15:38.990Z,3.30
2018-02-25T11:16:39.246Z,3.00
2018-02-25T11:17:39.515Z,3.00
2018-02-25T11:18:39.772Z,3.20
2018-02-25T11:19:40.049Z,2.60
2018-02-25T11:20:40.302Z,2.50
2018-02-25T11:21:40.572Z,2.50
2018-02-25T11:22:40.826Z,2.50
2018-02-25T11:23:41.097Z,2.50
2018-02-25T11:24:41.380Z,2.80
2018-02-25T11:25:41.637Z,2.50
2018-02-25T11:26:41.901Z,2.60
2018-02-25T11:27:42.186Z,2.40
2018-02-25T11:28:42.464Z,2.60
2018-02-25T11:29:42.701Z,2.90
2018-02-25T11:30:42.965Z,2.60
2018-02-25T11:31:43.298Z,2.60
2018-02-25T11:32:43.493Z,2.70
2018-02-25T11:33:43.762Z,2.60
2018-02-25T11:34:44.022Z,3.00
2018-02-25T11:35:44.291Z,2.40
2018-02-25T11:36:44.546Z,2.90
2018-02-25T11:37:44.819Z,2.50
2018-02-25T11:38:45.100Z,2.60
2018-02-25T11:39:45.368Z,2.70
2018-02-25T11:40:45.631Z,2.40
2018-02-25T11:41:45.897Z,2.80
2018-02-25T11:42:46.179Z,2.60
2018-02-25T11:43:46.437Z,2.50
2018-02-25T11:44:46.735Z,2.60
2018-02-25T11:45:46.981Z,2.30
2018-02-25T11:46:47.240Z,2.60
2018-02-25T11:47:47.507Z,2.50
2018-02-25T11:48:47.772Z,2.60
2018-02-25T11:49:48.034Z,2.60
2018-02-25T11:50:48.289Z,2.70
2018-02-25T11:51:48.545Z,2.60
2018-02-25T11:52:48.812Z,2.50
2018-02-25T11:53:49.083Z,2.60
2018-02-25T11:54:49.340Z,2.30
2018-02-25T11:55:49.595Z,2.70
2018-02-25T11:56:49.865Z,2.60
2018-02-25T11:57:50.130Z,2.60
2018-02-25T11:58:50.364Z,2.20
2018-02-25T11:59:50.632Z,2.60
2018-02-25T12:00:50.900Z,2.30
2018-02-25T12:01:51.164Z,2.60
2018-02-25T12:02:51.428Z,2.40
2018-02-25T12:03:51.691Z,2.50
2018-02-25T12:04:51.956Z,2.30
2018-02-25T12:05:52.246Z,2.90
2018-02-25T12:06:52.518Z,2.40
2018-02-25T12:07:52.780Z,2.50
2018-02-25T12:08:53.045Z,2.50
2018-02-25T12:09:53.296Z,2.40
2018-02-25T12:10:53.546Z,2.50
2018-02-25T12:11:53.820Z,2.50
2018-02-25T12:12:54.089Z,2.50
2018-02-25T12:13:54.355Z,2.30
2018-02-25T12:14:59.275Z,2.40
2018-02-25T12:15:54.868Z,2.30
2018-02-25T12:16:55.142Z,2.50
2018-02-25T12:17:55.408Z,2.90
2018-02-25T12:18:55.673Z,2.40
2018-02-25T12:19:55.991Z,2.80
2018-02-25T12:20:56.199Z,2.50
2018-02-25T12:21:56.465Z,2.60
2018-02-25T12:22:56.728Z,2.40
2018-02-25T12:23:56.996Z,2.50
2018-02-25T12:24:57.260Z,2.60
2018-02-25T12:25:57.533Z,2.50
2018-02-25T12:26:57.792Z,2.60
2018-02-25T12:27:58.058Z,2.50
2018-02-25T12:28:58.337Z,2.60
2018-02-25T12:29:58.582Z,2.40
2018-02-25T12:30:58.848Z,2.70
2018-02-25T12:31:59.118Z,2.80
2018-02-25T12:32:59.372Z,2.50
2018-02-25T12:33:59.633Z,2.40
2018-02-25T12:34:59.903Z,2.30
2018-02-25T12:36:00.168Z,2.50
2018-02-25T12:37:00.422Z,2.40
2018-02-25T12:38:00.691Z,2.60
2018-02-25T12:39:00.950Z,2.60
2018-02-25T12:40:01.216Z,2.30
2018-02-25T12:41:01.474Z,2.70
2018-02-25T12:42:01.734Z,2.30
2018-02-25T12:43:02.005Z,2.70
2018-02-25T12:44:02.277Z,2.40
2018-02-25T12:45:02.519Z,2.50
2018-02-25T12:46:02.795Z,2.50
2018-02-25T12:47:03.049Z,2.50
2018-02-25T12:48:03.313Z,2.30
2018-02-25T12:49:03.577Z,2.30
2018-02-25T12:50:03.842Z,2.40
2018-02-25T12:51:04.114Z,2.40
2018-02-25T12:52:04.371Z,2.50
2018-02-25T12:53:04.630Z,2.40
2018-02-25T12:54:04.900Z,2.50
2018-02-25T12:55:05.151Z,2.40
2018-02-25T12:56:05.436Z,2.30
2018-02-25T12:57:05.678Z,2.50
2018-02-25T12:58:05.980Z,2.40
2018-02-25T12:59:06.203Z,2.20
2018-02-25T13:00:06.460Z,2.10
2018-02-25T13:01:06.731Z,2.60
2018-02-25T13:02:06.993Z,2.30
2018-02-25T13:03:07.260Z,2.30
2018-02-25T13:04:07.521Z,2.40
2018-02-25T13:05:07.779Z,2.40
2018-02-25T13:06:08.083Z,2.30
2018-02-25T13:07:08.299Z,2.30
2018-02-25T13:08:08.564Z,2.60
2018-02-25T13:09:08.828Z,2.30
2018-02-25T13:10:09.094Z,2.00
2018-02-25T13:11:09.352Z,2.50
2018-02-25T13:12:09.623Z,2.40
2018-02-25T13:13:09.918Z,2.50
2018-02-25T13:14:10.173Z,2.10
2018-02-25T13:15:10.439Z,2.30
2018-02-25T13:16:10.702Z,2.20
2018-02-25T13:17:10.968Z,2.10
2018-02-25T13:18:11.232Z,2.30
2018-02-25T13:19:11.498Z,2.50
2018-02-25T13:20:11.762Z,2.50
2018-02-25T13:21:12.028Z,2.20
2018-02-25T13:22:12.292Z,2.30
2018-02-25T13:23:12.556Z,2.40